Sti Soho — V7BN8 — position and weather

sailwx.info

Track history (hours):
 
Tides and Currents Weather Stations Pressure Air Temp Water Temp Dewpoint Dewpoint Depression Visibility Wind Speed Wind Dir Waves Ship Positions

Sti Soho

Last reported at 2018-Feb-20 05:05 UTC. Time now 2018-Feb-23 10:38 UTC.
Position N 25°23' W 079°36'.

Length 183 m; draft 7.8 m.

Type: Tanker. MMSI: 538005177.

Date/timePositionNaut miles runAvg speedWind from/ knotsBaromVisibWave heightAir tempDewpointWater temp
2018-Feb-20 05:05N 25°23' W 079°36'110.7
2018-Feb-20 05:00N 25°24' W 079°36'510.6
2018-Feb-20 04:30N 25°29' W 079°36'510.3
2018-Feb-20 03:59N 25°35' W 079°36'510.2
2018-Feb-20 03:30N 25°40' W 079°35'510.3
2018-Feb-20 03:00N 25°45' W 079°34'510.7
2018-Feb-20 02:30N 25°50' W 079°32'510.8
2018-Feb-20 02:00N 25°55' W 079°31'610.9
2018-Feb-20 01:29N 26°00' W 079°29'510.8
2018-Feb-20 01:00N 26°05' W 079°27'610.8
2018-Feb-20 00:29N 26°11' W 079°25'510.7
2018-Feb-20 00:00N 26°16' W 079°24'611.4
2018-Feb-19 23:30N 26°19' W 079°19'  
Track history (hours):
 
Tides and Currents Weather Stations Pressure Air Temp Water Temp Dewpoint Dewpoint Depression Visibility Wind Speed Wind Dir Waves Ship Positions

Sti Soho

Last reported at 2018-Feb-20 05:05 UTC. Time now 2018-Feb-23 10:38 UTC.
Position N 25°23' W 079°36'.

Length 183 m; draft 7.8 m.

Type: Tanker. MMSI: 538005177.

Date/timePositionNaut miles runAvg speedWind from/ knotsBaromVisibWave heightAir tempDewpointWater temp
2018-Feb-20 05:05N 25°23' W 079°36'110.7
2018-Feb-20 05:00N 25°24' W 079°36'510.6
2018-Feb-20 04:30N 25°29' W 079°36'510.3
2018-Feb-20 03:59N 25°35' W 079°36'510.2
2018-Feb-20 03:30N 25°40' W 079°35'510.3
2018-Feb-20 03:00N 25°45' W 079°34'510.7
2018-Feb-20 02:30N 25°50' W 079°32'510.8
2018-Feb-20 02:00N 25°55' W 079°31'610.9
2018-Feb-20 01:29N 26°00' W 079°29'510.8
2018-Feb-20 01:00N 26°05' W 079°27'610.8
2018-Feb-20 00:29N 26°11' W 079°25'510.7
2018-Feb-20 00:00N 26°16' W 079°24'611.4
2018-Feb-19 23:30N 26°19' W 079°19'  

Dump ship's entire track history